Time;durP1;ratioP1;P1;durP2;ratioP2;P2;SDS_P1;SDS_P2;PMS_P1;PMS_P2;Temp;Humidity;BMP_temperature;BMP_pressure;BME280_temperature;BME280_humidity;BME280_pressure;Samples;Min_cycle;Max_cycle;Signal;HPM_P1;HPM_P2
2022/02/16 00:00:55;;;;;;;;;;;;;;;12.28;60.51;102035.91;145002;923;1016;-83
2022/02/16 00:03:24;;;;;;;;;;;;;;;12.27;60.57;102040.25;145001;923;2000;-88
2022/02/16 00:05:54;;;;;;;;;;;;;;;12.26;60.57;102033.25;145002;922;1017;-85
2022/02/16 00:08:20;;;;;;;;;;;;;;;12.28;60.54;102041.13;145002;922;1018;-86
2022/02/16 00:10:46;;;;;;;;;;;;;;;12.27;60.62;102036.75;145002;923;1017;-85
2022/02/16 00:13:12;;;;;;;;;;;;;;;12.24;60.57;102037.50;145002;918;1020;-85
2022/02/16 00:15:40;;;;;;;;;;;;;;;12.22;60.73;102035.69;145001;922;2000;-83
2022/02/16 00:18:07;;;;;;;;;;;;;;;12.20;60.70;102030.41;145002;922;1022;-86
2022/02/16 00:20:35;;;;;;;;;;;;;;;12.18;60.86;102032.03;145002;923;1020;-86
2022/02/16 00:23:00;;;;;;;;;;;;;;;12.16;60.79;102031.94;145001;922;2000;-85
2022/02/16 00:25:26;;;;;;;;;;;;;;;12.15;60.81;102019.78;145002;918;1019;-87
2022/02/16 00:27:52;;;;;;;;;;;;;;;12.13;60.91;102012.72;145002;922;1021;-84
2022/02/16 00:30:19;;;;;;;;;;;;;;;12.10;60.91;101999.56;145002;918;1018;-85
2022/02/16 00:32:45;;;;;;;;;;;;;;;12.08;60.89;102003.81;145002;923;1020;-86
2022/02/16 00:35:13;;;;;;;;;;;;;;;12.06;61.08;101998.56;145002;922;1019;-86
2022/02/16 00:37:41;;;;;;;;;;;;;;;12.04;61.21;102001.91;145002;922;1018;-85
2022/02/16 00:40:08;;;;;;;;;;;;;;;12.02;61.15;102004.44;145002;922;1021;-87
2022/02/16 00:42:34;;;;;;;;;;;;;;;12.02;61.36;101999.22;145002;922;1019;-85
2022/02/16 00:45:05;;;;;;;;;;;;;;;12.01;61.47;101999.16;145002;922;1017;-86
2022/02/16 00:47:31;;;;;;;;;;;;;;;12.02;61.48;101996.63;145002;923;1016;-87
2022/02/16 00:49:59;;;;;;;;;;;;;;;12.08;61.59;101996.00;145002;568;1428;-90
2022/02/16 00:52:25;;;;;;;;;;;;;;;12.14;61.43;101993.69;145002;893;1016;-86
2022/02/16 00:54:52;;;;;;;;;;;;;;;12.18;61.38;102000.78;145001;917;2000;-86
2022/02/16 00:59:55;;;;;;;;;;;;;;;12.16;61.54;101994.62;145002;854;1144;-86
2022/02/16 01:02:21;;;;;;;;;;;;;;;12.12;61.57;101987.50;145002;923;1020;-86
2022/02/16 01:04:47;;;;;;;;;;;;;;;12.10;61.31;101989.16;145002;919;1021;-85
2022/02/16 01:07:13;;;;;;;;;;;;;;;12.05;61.17;101986.34;145002;918;1018;-86
2022/02/16 01:09:39;;;;;;;;;;;;;;;12.01;61.04;101978.34;145002;915;1021;-85
2022/02/16 01:12:05;;;;;;;;;;;;;;;11.96;61.02;101979.03;145002;918;1021;-86
2022/02/16 01:14:31;;;;;;;;;;;;;;;11.93;60.99;101981.50;145001;918;2000;-86
2022/02/16 01:16:58;;;;;;;;;;;;;;;11.90;60.89;101975.22;145002;923;1019;-85
2022/02/16 01:19:25;;;;;;;;;;;;;;;11.91;61.25;101982.22;145002;918;1020;-86
2022/02/16 01:21:56;;;;;;;;;;;;;;;11.95;61.55;101985.06;145002;727;1432;-86
2022/02/16 01:24:28;;;;;;;;;;;;;;;12.02;61.08;101981.00;145002;920;1019;-86
2022/02/16 01:26:54;;;;;;;;;;;;;;;12.03;60.85;101980.19;145002;920;1017;-86
2022/02/16 01:29:20;;;;;;;;;;;;;;;12.02;60.97;101980.13;145001;916;2000;-87
2022/02/16 01:31:46;;;;;;;;;;;;;;;11.97;60.49;101967.78;145002;920;1017;-84
2022/02/16 01:34:13;;;;;;;;;;;;;;;11.95;60.67;101964.25;145002;917;1019;-87
2022/02/16 01:36:39;;;;;;;;;;;;;;;11.92;60.55;101961.50;145002;920;1021;-85
2022/02/16 01:39:05;;;;;;;;;;;;;;;11.90;60.62;101955.31;145002;920;1020;-86
2022/02/16 01:41:31;;;;;;;;;;;;;;;11.87;61.05;101943.88;145002;917;1018;-85
2022/02/16 01:43:57;;;;;;;;;;;;;;;11.84;60.82;101947.22;145002;916;1019;-86
2022/02/16 01:46:23;;;;;;;;;;;;;;;11.80;60.99;101951.41;145002;916;1016;-87
2022/02/16 01:48:49;;;;;;;;;;;;;;;11.80;61.01;101950.50;145002;916;1021;-86
2022/02/16 01:51:15;;;;;;;;;;;;;;;11.78;61.09;101949.56;145002;920;1019;-85
2022/02/16 01:53:41;;;;;;;;;;;;;;;11.76;61.09;101933.88;145002;916;1021;-86
2022/02/16 01:56:07;;;;;;;;;;;;;;;11.75;60.91;101931.22;145002;921;1018;-85
2022/02/16 01:58:34;;;;;;;;;;;;;;;11.75;61.23;101939.00;145002;916;1020;-85
2022/02/16 02:01:03;;;;;;;;;;;;;;;11.72;61.20;101942.34;145002;920;1018;-85
2022/02/16 02:03:29;;;;;;;;;;;;;;;11.65;62.78;101947.25;145002;921;1020;-85
2022/02/16 02:05:55;;;;;;;;;;;;;;;11.63;61.58;101947.19;145002;920;1016;-85
2022/02/16 02:08:23;;;;;;;;;;;;;;;11.64;61.66;101945.44;145002;916;1021;-86
2022/02/16 02:10:53;;;;;;;;;;;;;;;11.65;61.29;101942.91;145002;920;1020;-86
2022/02/16 02:13:21;;;;;;;;;;;;;;;11.65;61.29;101952.44;145002;920;1016;-86
2022/02/16 02:15:47;;;;;;;;;;;;;;;11.68;61.73;101955.19;145002;920;1016;-85
2022/02/16 02:23:30;;;;;;;;;;;;;;;11.88;61.22;101954.38;145002;726;1204;-89
2022/02/16 02:25:58;;;;;;;;;;;;;;;11.98;61.39;101942.69;145002;926;1020;-87
2022/02/16 02:28:27;;;;;;;;;;;;;;;12.03;61.15;101932.47;145002;920;1021;-86
2022/02/16 02:30:54;;;;;;;;;;;;;;;12.03;60.78;101924.66;145002;925;1021;-85
2022/02/16 02:33:23;;;;;;;;;;;;;;;12.00;60.77;101920.19;145002;922;1021;-85
2022/02/16 02:35:49;;;;;;;;;;;;;;;11.97;60.91;101923.53;145002;925;1019;-87
2022/02/16 02:38:17;;;;;;;;;;;;;;;11.94;60.78;101920.81;145002;921;1016;-86
2022/02/16 02:40:43;;;;;;;;;;;;;;;11.93;60.86;101913.84;145002;937;1018;-87
2022/02/16 02:43:09;;;;;;;;;;;;;;;11.97;60.84;101920.06;145002;920;1017;-86
2022/02/16 02:45:36;;;;;;;;;;;;;;;12.01;60.87;101922.00;145002;921;1018;-85
2022/02/16 02:48:08;;;;;;;;;;;;;;;12.05;60.96;101913.47;145002;921;1016;-86
2022/02/16 02:50:34;;;;;;;;;;;;;;;12.06;60.91;101912.66;145002;924;1017;-84
2022/02/16 02:53:03;;;;;;;;;;;;;;;12.12;60.80;101925.03;145002;921;1019;-87
2022/02/16 02:55:33;;;;;;;;;;;;;;;12.13;60.64;101916.41;145002;925;1019;-86
2022/02/16 02:57:59;;;;;;;;;;;;;;;12.15;60.61;101918.25;145002;921;1019;-85
2022/02/16 03:00:25;;;;;;;;;;;;;;;12.15;60.67;101925.16;145002;925;1017;-86
2022/02/16 03:02:52;;;;;;;;;;;;;;;12.12;60.42;101923.34;145002;917;1018;-87
2022/02/16 03:05:19;;;;;;;;;;;;;;;12.10;60.58;101924.97;145002;925;1018;-86
2022/02/16 03:07:51;;;;;;;;;;;;;;;12.14;60.63;101924.28;145002;542;1503;-87
2022/02/16 03:10:18;;;;;;;;;;;;;;;12.16;60.58;101924.34;145002;925;1021;-87
2022/02/16 03:12:45;;;;;;;;;;;;;;;12.16;60.49;101922.63;145002;920;1016;-86
2022/02/16 03:15:13;;;;;;;;;;;;;;;12.16;60.80;101917.41;145002;827;1172;-87
2022/02/16 03:17:42;;;;;;;;;;;;;;;12.19;60.55;101915.78;145002;347;1334;-89
2022/02/16 03:20:17;;;;;;;;;;;;;;;12.22;60.64;101911.59;145002;604;1392;-85
2022/02/16 03:22:45;;;;;;;;;;;;;;;12.27;60.45;101897.03;145002;923;1020;-87
2022/02/16 03:25:17;;;;;;;;;;;;;;;12.25;60.36;101890.91;145001;922;2000;-86
2022/02/16 03:27:43;;;;;;;;;;;;;;;12.19;60.42;101889.75;145002;922;1017;-86
2022/02/16 03:30:13;;;;;;;;;;;;;;;12.12;60.52;101893.78;145002;917;1019;-86
2022/02/16 03:32:40;;;;;;;;;;;;;;;12.02;60.58;101887.31;145002;922;1021;-88
2022/02/16 03:35:06;;;;;;;;;;;;;;;11.87;61.05;101879.72;145002;921;1017;-85
2022/02/16 03:42:41;;;;;;;;;;;;;;;11.64;62.25;101890.84;145002;648;1361;-86
2022/02/16 03:45:09;;;;;;;;;;;;;;;11.71;61.87;101895.50;145002;923;1016;-86
2022/02/16 03:47:36;;;;;;;;;;;;;;;11.78;61.87;101895.81;145002;919;1017;-86
2022/02/16 03:50:08;;;;;;;;;;;;;;;11.85;61.68;101899.59;145002;922;1016;-86
2022/02/16 03:52:38;;;;;;;;;;;;;;;11.93;61.57;101898.25;145002;918;1019;-88
2022/02/16 03:55:09;;;;;;;;;;;;;;;11.97;61.53;101902.72;145001;923;2000;-87
2022/02/16 03:57:38;;;;;;;;;;;;;;;12.02;61.37;101896.84;145002;918;1017;-87
2022/02/16 04:00:09;;;;;;;;;;;;;;;12.06;61.44;101902.25;145002;937;1017;-86
2022/02/16 04:02:35;;;;;;;;;;;;;;;12.07;61.22;101898.81;145002;919;1017;-86
2022/02/16 04:05:02;;;;;;;;;;;;;;;12.08;61.15;101908.41;145002;922;1020;-86
2022/02/16 04:07:29;;;;;;;;;;;;;;;12.07;61.09;101926.56;145002;919;1016;-87
2022/02/16 04:10:00;;;;;;;;;;;;;;;12.06;61.19;101915.25;145002;923;1020;-86
2022/02/16 04:12:29;;;;;;;;;;;;;;;12.06;61.00;101915.25;145002;918;1017;-84
2022/02/16 04:14:56;;;;;;;;;;;;;;;12.06;61.00;101922.19;145002;923;1017;-85
2022/02/16 04:17:23;;;;;;;;;;;;;;;12.07;60.91;101919.62;145002;919;1018;-86
2022/02/16 04:19:50;;;;;;;;;;;;;;;12.07;60.91;101917.03;145002;923;1018;-86
2022/02/16 04:22:23;;;;;;;;;;;;;;;12.09;60.98;101914.47;145002;919;1016;-87
2022/02/16 04:24:50;;;;;;;;;;;;;;;12.08;61.06;101913.59;145002;924;1017;-85
2022/02/16 04:27:18;;;;;;;;;;;;;;;12.09;61.25;101914.47;145002;912;1016;-87
2022/02/16 04:29:46;;;;;;;;;;;;;;;12.08;60.87;101907.53;145002;923;1016;-84
2022/02/16 04:32:22;;;;;;;;;;;;;;;12.11;60.77;101910.25;145002;642;1387;-86
2022/02/16 04:34:53;;;;;;;;;;;;;;;12.10;60.94;101905.88;145002;573;1395;-87
2022/02/16 04:37:20;;;;;;;;;;;;;;;12.11;61.16;101899.84;145002;921;1021;-86
2022/02/16 04:39:49;;;;;;;;;;;;;;;12.08;61.29;101892.78;145002;920;1020;-85
2022/02/16 04:42:16;;;;;;;;;;;;;;;12.02;61.03;101874.31;145002;920;1018;-86
2022/02/16 04:44:44;;;;;;;;;;;;;;;11.95;61.10;101882.69;145002;920;1020;-84
2022/02/16 04:47:11;;;;;;;;;;;;;;;11.87;61.07;101882.31;145002;921;1018;-85
2022/02/16 04:49:37;;;;;;;;;;;;;;;11.81;61.29;101871.66;145002;916;1021;-86
2022/02/16 04:52:03;;;;;;;;;;;;;;;11.78;61.40;101880.19;145002;920;1020;-87
2022/02/16 04:54:40;;;;;;;;;;;;;;;11.77;61.79;101865.44;145002;748;1248;-83
2022/02/16 04:57:07;;;;;;;;;;;;;;;11.79;61.43;101858.56;145002;672;1412;-87
2022/02/16 04:59:33;;;;;;;;;;;;;;;11.83;61.47;101866.50;145002;922;1018;-86
2022/02/16 05:01:59;;;;;;;;;;;;;;;11.82;61.45;101873.44;145002;919;1016;-86
2022/02/16 05:04:26;;;;;;;;;;;;;;;11.79;61.82;101884.59;145002;918;1017;-86
2022/02/16 05:06:53;;;;;;;;;;;;;;;11.78;61.56;101869.78;145002;918;1017;-86
2022/02/16 05:14:36;;;;;;;;;;;;;;;11.86;61.79;101877.94;145002;542;1484;-87
2022/02/16 05:17:10;;;;;;;;;;;;;;;11.88;61.88;101876.31;145002;567;1500;-88
2022/02/16 05:19:41;;;;;;;;;;;;;;;11.95;61.74;101880.97;145002;591;1471;-88
2022/02/16 05:24:39;;;;;;;;;;;;;;;12.05;61.68;101876.16;145002;608;1391;-85
2022/02/16 05:27:06;;;;;;;;;;;;;;;12.05;61.64;101882.25;145002;924;1020;-87
2022/02/16 05:29:32;;;;;;;;;;;;;;;12.03;61.64;101873.50;145002;924;1020;-86
2022/02/16 05:32:01;;;;;;;;;;;;;;;12.04;61.49;101871.75;145002;925;1017;-87
2022/02/16 05:34:27;;;;;;;;;;;;;;;12.01;61.37;101869.03;145002;924;1016;-87
2022/02/16 05:36:53;;;;;;;;;;;;;;;11.98;61.52;101875.00;145002;920;1019;-87
2022/02/16 05:39:19;;;;;;;;;;;;;;;11.95;61.46;101877.47;145002;925;1021;-84
2022/02/16 05:41:45;;;;;;;;;;;;;;;11.91;61.44;101871.19;145002;921;1017;-90
2022/02/16 05:44:14;;;;;;;;;;;;;;;11.89;61.55;101867.66;145002;921;1016;-89
2022/02/16 05:46:42;;;;;;;;;;;;;;;11.88;61.66;101881.50;145002;925;1017;-86
2022/02/16 05:49:14;;;;;;;;;;;;;;;11.88;61.68;101872.78;145002;924;1018;-91
2022/02/16 05:51:40;;;;;;;;;;;;;;;11.88;61.68;101878.91;145002;925;1016;-85
2022/02/16 05:54:06;;;;;;;;;;;;;;;11.87;61.61;101894.44;145002;925;1018;-86
2022/02/16 05:56:33;;;;;;;;;;;;;;;11.87;61.60;101887.53;145002;924;1020;-87
2022/02/16 05:59:00;;;;;;;;;;;;;;;11.85;61.68;101890.87;145002;924;1018;-86
2022/02/16 06:01:26;;;;;;;;;;;;;;;11.85;61.70;101889.19;145002;925;1020;-86
2022/02/16 06:03:52;;;;;;;;;;;;;;;11.85;61.96;101888.28;145001;924;2000;-86
2022/02/16 06:06:21;;;;;;;;;;;;;;;11.85;62.00;101890.87;145002;920;1020;-86
2022/02/16 06:08:51;;;;;;;;;;;;;;;11.87;62.07;101897.06;145002;927;1017;-85
2022/02/16 06:11:18;;;;;;;;;;;;;;;11.93;61.90;101905.13;145002;924;1017;-87
2022/02/16 06:13:47;;;;;;;;;;;;;;;11.98;62.19;101893.22;145002;924;1020;-87
2022/02/16 06:16:20;;;;;;;;;;;;;;;12.03;62.11;101896.91;145002;925;1016;-86
2022/02/16 06:18:53;;;;;;;;;;;;;;;12.09;62.05;101902.38;145002;925;1016;-83
2022/02/16 06:23:56;;;;;;;;;;;;;;;12.31;61.92;101911.97;145002;602;1388;-89
2022/02/16 06:26:27;;;;;;;;;;;;;;;12.39;61.67;101906.19;145002;579;1466;-83
2022/02/16 06:29:04;;;;;;;;;;;;;;;12.46;61.70;101908.22;145002;924;1015;-85
2022/02/16 06:31:36;;;;;;;;;;;;;;;12.50;61.62;101908.44;145002;921;1018;-88
2022/02/16 06:34:07;;;;;;;;;;;;;;;12.61;61.66;101903.63;145002;924;1018;-84
2022/02/16 06:36:35;;;;;;;;;;;;;;;12.68;61.57;101899.56;145002;921;1015;-84
2022/02/16 06:44:10;;;;;;;;;;;;;;;12.88;61.35;101901.25;145003;611;1406;-84
2022/02/16 06:46:42;;;;;;;;;;;;;;;12.96;61.21;101896.31;145003;923;1018;-84
2022/02/16 06:49:09;;;;;;;;;;;;;;;13.02;61.41;101898.28;145003;922;1019;-86
2022/02/16 06:51:36;;;;;;;;;;;;;;;13.11;61.14;101903.84;145003;922;1019;-84
2022/02/16 06:54:04;;;;;;;;;;;;;;;13.21;61.57;101898.16;145003;922;1017;-86
2022/02/16 06:56:36;;;;;;;;;;;;;;;13.33;61.01;101904.69;145003;922;1016;-83
2022/02/16 06:59:04;;;;;;;;;;;;;;;13.43;60.95;101906.81;145003;922;1019;-85
2022/02/16 07:01:33;;;;;;;;;;;;;;;13.51;60.94;101913.19;145003;892;1017;-85
2022/02/16 07:04:04;;;;;;;;;;;;;;;13.58;60.78;101906.47;145003;922;1017;-85
2022/02/16 07:06:31;;;;;;;;;;;;;;;13.63;60.91;101897.09;145002;922;2000;-85
2022/02/16 07:09:01;;;;;;;;;;;;;;;13.66;60.43;101904.16;145003;923;1017;-85
2022/02/16 07:11:32;;;;;;;;;;;;;;;13.67;60.62;101905.94;145003;922;1018;-84
2022/02/16 07:13:59;;;;;;;;;;;;;;;13.66;60.25;101901.53;145002;925;1017;-86
2022/02/16 07:16:26;;;;;;;;;;;;;;;13.69;60.71;101893.81;145002;923;1018;-88
2022/02/16 07:18:57;;;;;;;;;;;;;;;13.69;60.80;101891.22;145002;922;1021;-86
2022/02/16 07:21:28;;;;;;;;;;;;;;;13.77;60.94;101900.19;145002;922;1016;-86
2022/02/16 07:23:56;;;;;;;;;;;;;;;13.86;60.42;101889.22;145001;923;2000;-86
2022/02/16 07:26:22;;;;;;;;;;;;;;;13.94;60.76;101887.75;145002;922;1021;-85
2022/02/16 07:28:49;;;;;;;;;;;;;;;14.04;60.92;101889.84;145002;923;1016;-89
2022/02/16 07:31:19;;;;;;;;;;;;;;;14.13;61.14;101897.97;145001;923;2000;-86
2022/02/16 07:33:45;;;;;;;;;;;;;;;14.21;60.98;101890.41;145002;922;1016;-87
2022/02/16 07:36:12;;;;;;;;;;;;;;;14.28;60.83;101886.28;145002;923;1016;-87
2022/02/16 07:38:46;;;;;;;;;;;;;;;14.36;60.78;101887.41;145002;924;1017;-86
2022/02/16 07:43:50;;;;;;;;;;;;;;;14.61;61.00;101875.19;145002;595;1406;-83
2022/02/16 07:46:25;;;;;;;;;;;;;;;14.72;60.97;101878.16;145002;925;1016;-87
2022/02/16 07:49:00;;;;;;;;;;;;;;;14.79;60.86;101880.09;145002;924;1019;-86
2022/02/16 07:51:31;;;;;;;;;;;;;;;14.88;61.08;101886.47;145002;631;1358;-87
2022/02/16 07:53:59;;;;;;;;;;;;;;;14.95;60.87;101892.78;145002;625;1361;-85
2022/02/16 07:56:34;;;;;;;;;;;;;;;14.93;61.41;101883.12;145002;924;1016;-85
2022/02/16 07:59:01;;;;;;;;;;;;;;;14.82;61.52;101888.91;145002;942;1017;-85
2022/02/16 08:01:27;;;;;;;;;;;;;;;14.81;60.99;101887.16;145002;925;1019;-86
2022/02/16 08:04:15;;;;;;;;;;;;;;;14.78;60.69;101887.06;145002;924;1020;-86
2022/02/16 08:07:06;;;;;;;;;;;;;;;;;;;;;
2022/02/16 08:09:50;;;;;;;;;;;;;;;14.77;60.14;101884.41;145002;920;1018;-86
2022/02/16 08:17:41;;;;;;;;;;;;;;;14.85;60.23;101878.53;145002;639;1373;-80
2022/02/16 08:20:17;;;;;;;;;;;;;;;14.88;59.98;101873.41;145002;567;1480;-85
2022/02/16 08:22:52;;;;;;;;;;;;;;;14.93;60.05;101867.44;145002;532;1476;-80
2022/02/16 08:25:21;;;;;;;;;;;;;;;14.96;60.38;101860.56;145002;485;1362;-85
2022/02/16 08:27:53;;;;;;;;;;;;;;;15.03;60.23;101865.16;145002;925;1016;-84
2022/02/16 08:32:53;;;;;;;;;;;;;;;15.13;60.57;101857.56;145002;574;1468;-86
2022/02/16 08:35:26;;;;;;;;;;;;;;;15.15;60.43;101846.31;145002;927;1016;-85
2022/02/16 08:37:54;;;;;;;;;;;;;;;15.21;60.25;101841.25;145002;755;1267;-86
2022/02/16 08:40:22;;;;;;;;;;;;;;;15.32;60.76;101844.19;145002;926;1019;-85
2022/02/16 08:42:48;;;;;;;;;;;;;;;15.41;60.21;101843.53;145002;922;1018;-86
2022/02/16 08:45:15;;;;;;;;;;;;;;;15.45;60.47;101839.31;145002;927;1019;-89
2022/02/16 08:47:41;;;;;;;;;;;;;;;15.46;60.37;101826.22;145002;922;1017;-86
2022/02/16 08:50:12;;;;;;;;;;;;;;;14.88;58.22;101833.31;145002;926;1016;-87
2022/02/16 08:52:39;;;;;;;;;;;;;;;15.17;60.40;101847.22;145002;923;1017;-84
2022/02/16 08:55:06;;;;;;;;;;;;;;;15.18;60.69;101838.56;145002;926;1019;-85
2022/02/16 08:57:36;;;;;;;;;;;;;;;14.38;61.49;101840.44;145002;922;1017;-87
2022/02/16 09:00:05;;;;;;;;;;;;;;;14.44;60.94;101840.63;145002;927;1016;-86
2022/02/16 09:02:37;;;;;;;;;;;;;;;14.47;61.50;101844.22;145002;922;1016;-87
2022/02/16 09:05:09;;;;;;;;;;;;;;;14.50;61.18;101857.37;145002;926;1016;-82
2022/02/16 09:07:35;;;;;;;;;;;;;;;14.20;59.62;101853.78;145002;922;1017;-88
2022/02/16 09:10:10;;;;;;;;;;;;;;;14.48;61.00;101853.84;145002;926;1017;-87
2022/02/16 09:12:37;;;;;;;;;;;;;;;14.55;60.41;101854.94;145002;922;1016;-83
2022/02/16 09:15:04;;;;;;;;;;;;;;;14.71;60.59;101851.09;145002;926;1018;-85
2022/02/16 09:17:31;;;;;;;;;;;;;;;14.58;61.17;101844.56;145002;922;1019;-87
2022/02/16 09:19:57;;;;;;;;;;;;;;;14.74;60.71;101834.63;145002;926;1017;-84
2022/02/16 09:22:25;;;;;;;;;;;;;;;14.74;61.09;101817.22;145002;922;1020;-84
2022/02/16 09:24:51;;;;;;;;;;;;;;;14.84;60.84;101829.75;145002;926;1019;-85
2022/02/16 09:27:19;;;;;;;;;;;;;;;14.95;60.48;101831.78;145002;922;1017;-85
2022/02/16 09:29:46;;;;;;;;;;;;;;;14.63;61.16;101821.22;145002;927;1023;-83
2022/02/16 09:32:12;;;;;;;;;;;;;;;14.72;61.37;101815.41;145002;922;1022;-84
2022/02/16 09:34:38;;;;;;;;;;;;;;;14.76;60.85;101802.50;145002;926;1016;-84
2022/02/16 09:37:06;;;;;;;;;;;;;;;14.24;62.46;101801.72;145002;922;1020;-84
2022/02/16 09:39:32;;;;;;;;;;;;;;;14.37;61.93;101796.91;145002;926;1017;-88
2022/02/16 09:41:59;;;;;;;;;;;;;;;14.20;62.92;101791.12;145002;922;1018;-84
2022/02/16 09:44:30;;;;;;;;;;;;;;;13.72;64.23;101800.00;145002;927;1020;-87
2022/02/16 09:46:59;;;;;;;;;;;;;;;13.87;63.86;101787.47;145002;922;1019;-85
2022/02/16 09:49:27;;;;;;;;;;;;;;;13.66;64.98;101790.22;145002;608;1441;-87
2022/02/16 09:51:58;;;;;;;;;;;;;;;13.68;65.32;101783.34;145002;925;1016;-87
2022/02/16 09:54:28;;;;;;;;;;;;;;;14.11;63.85;101779.56;145002;923;1016;-87
2022/02/16 09:57:00;;;;;;;;;;;;;;;13.90;64.22;101768.41;145002;923;1019;-84
2022/02/16 09:59:30;;;;;;;;;;;;;;;13.86;64.87;101771.75;145002;630;1379;-88
2022/02/16 10:02:01;;;;;;;;;;;;;;;13.76;64.97;101761.00;145002;924;1021;-84
2022/02/16 10:04:33;;;;;;;;;;;;;;;14.00;64.17;101753.91;145002;924;1016;-84
2022/02/16 10:07:26;;;;;;;;;;;;;;;13.57;66.99;101746.47;145002;924;1017;-83
2022/02/16 10:09:59;;;;;;;;;;;;;;;13.78;65.18;101753.25;145002;924;1017;-85
2022/02/16 10:12:35;;;;;;;;;;;;;;;13.86;65.02;101746.53;145002;924;1016;-88
2022/02/16 10:15:07;;;;;;;;;;;;;;;13.80;65.68;101738.50;145002;636;1373;-87
2022/02/16 10:17:36;;;;;;;;;;;;;;;13.60;65.91;101728.31;145002;530;1412;-86
2022/02/16 10:20:05;;;;;;;;;;;;;;;13.16;67.53;101721.53;145002;927;1017;-85
2022/02/16 10:22:49;;;;;;;;;;;;;;;13.33;66.65;101720.44;145002;923;1018;-87
2022/02/16 10:25:23;;;;;;;;;;;;;;;13.41;66.05;101705.06;145002;926;1018;-85
2022/02/16 10:28:10;;;;;;;;;;;;;;;13.23;67.80;101698.34;145002;922;1020;-87
2022/02/16 10:30:54;;;;;;;;;;;;;;;13.42;65.72;101692.03;145002;921;1019;-85
2022/02/16 10:33:25;;;;;;;;;;;;;;;13.51;65.39;101682.78;145002;918;1022;-87
2022/02/16 10:36:14;;;;;;;;;;;;;;;13.58;65.77;101683.03;145002;922;1019;-84
2022/02/16 10:38:53;;;;;;;;;;;;;;;13.66;65.73;101679.75;145002;921;1018;-86
2022/02/16 10:41:20;;;;;;;;;;;;;;;13.62;65.88;101670.97;145002;926;1018;-85
2022/02/16 10:43:46;;;;;;;;;;;;;;;13.34;68.50;101658.72;145002;922;1021;-86
2022/02/16 10:46:16;;;;;;;;;;;;;;;13.35;66.47;101658.78;145002;926;1022;-85
2022/02/16 10:48:43;;;;;;;;;;;;;;;13.27;67.52;101649.78;145002;922;1016;-86
2022/02/16 10:51:15;;;;;;;;;;;;;;;13.30;69.17;101652.50;145002;926;1017;-85
2022/02/16 10:53:41;;;;;;;;;;;;;;;13.13;69.90;101649.31;145002;921;1017;-85
2022/02/16 10:56:07;;;;;;;;;;;;;;;13.42;66.70;101649.44;145002;926;1019;-85
2022/02/16 10:58:35;;;;;;;;;;;;;;;13.11;70.51;101640.56;145002;922;1021;-86
2022/02/16 11:01:01;;;;;;;;;;;;;;;13.41;67.08;101632.03;145002;925;1018;-85
2022/02/16 11:03:35;;;;;;;;;;;;;;;13.51;67.19;101630.59;145002;922;1020;-87
2022/02/16 11:06:04;;;;;;;;;;;;;;;13.42;68.71;101632.03;145002;926;1018;-91
2022/02/16 11:08:31;;;;;;;;;;;;;;;13.16;68.72;101632.91;145002;922;1021;-91
2022/02/16 11:11:03;;;;;;;;;;;;;;;13.27;68.37;101638.44;145002;926;1017;-86
2022/02/16 11:13:36;;;;;;;;;;;;;;;13.53;67.06;101631.53;145002;922;1016;-86
2022/02/16 11:16:04;;;;;;;;;;;;;;;13.33;68.25;101629.16;145002;636;1443;-85
2022/02/16 11:18:44;;;;;;;;;;;;;;;13.60;67.34;101629.16;145001;924;2000;-86
2022/02/16 11:21:23;;;;;;;;;;;;;;;13.81;66.79;101619.34;145002;924;1017;-84
2022/02/16 11:26:51;;;;;;;;;;;;;;;13.87;66.58;101609.09;145002;930;1018;-84
2022/02/16 11:29:46;;;;;;;;;;;;;;;14.08;66.00;101595.81;145002;919;1019;-85
2022/02/16 11:32:47;;;;;;;;;;;;;;;13.94;66.08;101595.41;145002;927;1018;-85
2022/02/16 11:35:17;;;;;;;;;;;;;;;13.88;67.49;101593.47;145002;919;1018;-85
2022/02/16 11:37:46;;;;;;;;;;;;;;;13.96;66.40;101585.87;145002;922;1018;-85
2022/02/16 11:40:14;;;;;;;;;;;;;;;13.96;67.15;101580.66;145002;919;1020;-85
2022/02/16 11:42:52;;;;;;;;;;;;;;;13.92;67.83;101566.63;145002;923;1021;-84
2022/02/16 11:45:37;;;;;;;;;;;;;;;13.85;67.72;101564.66;145002;581;1408;-87
2022/02/16 11:48:08;;;;;;;;;;;;;;;14.00;66.53;101563.34;145002;925;1018;-88
2022/02/16 11:50:41;;;;;;;;;;;;;;;13.69;67.16;101560.72;145002;920;1016;-88
2022/02/16 11:53:30;;;;;;;;;;;;;;;13.85;67.38;101563.78;145002;923;1020;-88
2022/02/16 11:56:15;;;;;;;;;;;;;;;13.73;67.58;101556.50;145002;920;1016;-85
2022/02/16 11:58:41;;;;;;;;;;;;;;;13.96;66.22;101549.34;145002;924;1017;-89
2022/02/16 12:06:25;;;;;;;;;;;;;;;14.03;66.77;101540.84;145002;572;1505;-87
2022/02/16 12:11:33;;;;;;;;;;;;;;;14.06;66.97;101522.66;145002;610;1385;-84
2022/02/16 12:14:06;;;;;;;;;;;;;;;13.73;68.26;101510.41;145002;567;1480;-85
2022/02/16 12:16:44;;;;;;;;;;;;;;;13.60;69.28;101501.34;145002;575;1431;-83
2022/02/16 12:19:39;;;;;;;;;;;;;;;13.51;69.18;101505.41;145001;586;2000;-89
2022/02/16 12:22:22;;;;;;;;;;;;;;;13.12;71.99;101518.91;145002;633;1478;-89
2022/02/16 12:27:27;;;;;;;;;;;;;;;13.21;70.76;101504.44;145002;576;1485;-89
2022/02/16 12:30:03;;;;;;;;;;;;;;;13.31;70.40;101510.81;145002;701;1287;-83
2022/02/16 12:35:08;;;;;;;;;;;;;;;13.64;69.53;101491.00;145002;930;1016;-87
2022/02/16 12:37:37;;;;;;;;;;;;;;;13.75;68.76;101493.06;145002;920;1021;-86
2022/02/16 12:40:05;;;;;;;;;;;;;;;13.49;69.79;101475.75;145002;925;1017;-86
2022/02/16 12:42:44;;;;;;;;;;;;;;;13.58;69.46;101474.31;145002;921;1018;-87
2022/02/16 12:45:10;;;;;;;;;;;;;;;13.59;68.54;101462.16;145002;924;1016;-84
2022/02/16 12:47:37;;;;;;;;;;;;;;;13.69;68.11;101456.34;145002;921;1018;-86
2022/02/16 12:50:10;;;;;;;;;;;;;;;13.74;67.73;101443.44;145002;925;1021;-85
2022/02/16 12:52:37;;;;;;;;;;;;;;;13.77;67.77;101431.34;145002;920;1020;-84
2022/02/16 12:55:13;;;;;;;;;;;;;;;13.74;67.50;101433.00;145002;925;1020;-86
2022/02/16 12:57:40;;;;;;;;;;;;;;;13.61;67.96;101439.59;145002;921;1017;-86
2022/02/16 13:03:02;;;;;;;;;;;;;;;13.58;68.14;101431.69;145002;919;1022;-89
2022/02/16 13:05:39;;;;;;;;;;;;;;;13.71;67.08;101406.81;145002;925;1023;-88
2022/02/16 13:08:06;;;;;;;;;;;;;;;13.53;67.95;101400.25;145002;920;1019;-88
2022/02/16 13:10:33;;;;;;;;;;;;;;;13.65;67.25;101389.28;145002;925;1018;-87
2022/02/16 13:13:13;;;;;;;;;;;;;;;13.76;67.06;101384.34;145002;921;1021;-86
2022/02/16 13:15:42;;;;;;;;;;;;;;;13.79;67.01;101393.16;145002;924;1020;-86
2022/02/16 13:18:09;;;;;;;;;;;;;;;13.85;66.76;101384.59;145002;921;1018;-85
2022/02/16 13:20:36;;;;;;;;;;;;;;;13.69;67.52;101380.69;145002;921;1019;-86
2022/02/16 13:23:04;;;;;;;;;;;;;;;13.66;67.60;101375.38;145002;920;1023;-88
2022/02/16 13:25:39;;;;;;;;;;;;;;;13.89;66.88;101362.09;145001;925;1998;-86
2022/02/16 13:28:07;;;;;;;;;;;;;;;13.64;69.27;101357.94;145001;923;2000;-88
2022/02/16 13:30:34;;;;;;;;;;;;;;;13.89;68.07;101352.53;145002;926;1018;-86
2022/02/16 13:33:12;;;;;;;;;;;;;;;13.77;69.25;101350.47;145002;923;1016;-86
2022/02/16 13:35:42;;;;;;;;;;;;;;;13.91;69.04;101363.88;145002;927;1017;-85
2022/02/16 13:38:09;;;;;;;;;;;;;;;14.19;68.33;101358.47;145002;923;1017;-85
2022/02/16 13:40:48;;;;;;;;;;;;;;;13.86;69.25;101356.78;145002;927;1020;-85
2022/02/16 13:43:18;;;;;;;;;;;;;;;13.97;69.27;101363.19;145002;923;1017;-85
2022/02/16 13:45:44;;;;;;;;;;;;;;;13.86;69.68;101364.63;145002;926;1016;-85
2022/02/16 13:48:11;;;;;;;;;;;;;;;13.87;69.43;101353.31;145002;923;1016;-85
2022/02/16 13:50:43;;;;;;;;;;;;;;;13.42;72.24;101352.97;145002;927;1016;-88
2022/02/16 13:53:13;;;;;;;;;;;;;;;13.41;71.61;101346.03;145002;639;1347;-85
2022/02/16 13:55:44;;;;;;;;;;;;;;;13.73;70.83;101355.59;145002;927;1016;-87
2022/02/16 13:58:11;;;;;;;;;;;;;;;13.71;70.66;101349.41;145002;923;1018;-85